sensor_id;sensor_type;location;lat;lon;timestamp;temperature;humidity
45491;DHT22;31237;45.586;13.782;2022-07-05T00:01:04;26.50;57.70
45491;DHT22;31237;45.586;13.782;2022-07-05T00:03:30;26.40;57.80
45491;DHT22;31237;45.586;13.782;2022-07-05T00:05:56;26.30;57.80
45491;DHT22;31237;45.586;13.782;2022-07-05T00:08:22;26.30;57.90
45491;DHT22;31237;45.586;13.782;2022-07-05T00:10:48;26.20;57.90
45491;DHT22;31237;45.586;13.782;2022-07-05T00:13:14;26.20;58.10
45491;DHT22;31237;45.586;13.782;2022-07-05T00:15:40;26.10;58.20
45491;DHT22;31237;45.586;13.782;2022-07-05T00:18:06;26.10;58.30
45491;DHT22;31237;45.586;13.782;2022-07-05T00:20:32;26.10;58.20
45491;DHT22;31237;45.586;13.782;2022-07-05T00:22:58;26.00;58.20
45491;DHT22;31237;45.586;13.782;2022-07-05T00:25:23;26.00;58.20
45491;DHT22;31237;45.586;13.782;2022-07-05T00:27:49;26.00;58.30
45491;DHT22;31237;45.586;13.782;2022-07-05T00:30:15;26.00;58.20
45491;DHT22;31237;45.586;13.782;2022-07-05T00:32:41;26.00;58.20
45491;DHT22;31237;45.586;13.782;2022-07-05T00:35:07;26.00;58.20
45491;DHT22;31237;45.586;13.782;2022-07-05T00:37:34;26.00;58.20
45491;DHT22;31237;45.586;13.782;2022-07-05T00:40:00;25.90;58.10
45491;DHT22;31237;45.586;13.782;2022-07-05T00:42:26;25.90;58.10
45491;DHT22;31237;45.586;13.782;2022-07-05T00:44:52;25.90;58.00
45491;DHT22;31237;45.586;13.782;2022-07-05T00:47:18;25.90;58.10
45491;DHT22;31237;45.586;13.782;2022-07-05T00:49:44;25.90;58.00
45491;DHT22;31237;45.586;13.782;2022-07-05T00:52:11;25.90;58.00
45491;DHT22;31237;45.586;13.782;2022-07-05T00:54:38;25.90;58.00
45491;DHT22;31237;45.586;13.782;2022-07-05T00:57:05;25.90;57.90
45491;DHT22;31237;45.586;13.782;2022-07-05T00:59:31;25.90;58.00
45491;DHT22;31237;45.586;13.782;2022-07-05T01:01:57;25.90;58.00
45491;DHT22;31237;45.586;13.782;2022-07-05T01:04:23;25.90;58.00
45491;DHT22;31237;45.586;13.782;2022-07-05T01:06:50;25.90;58.00
45491;DHT22;31237;45.586;13.782;2022-07-05T01:09:18;25.90;58.00
45491;DHT22;31237;45.586;13.782;2022-07-05T01:11:45;25.90;58.00
45491;DHT22;31237;45.586;13.782;2022-07-05T01:14:19;25.90;58.00
45491;DHT22;31237;45.586;13.782;2022-07-05T01:16:46;25.90;57.90
45491;DHT22;31237;45.586;13.782;2022-07-05T01:19:13;25.80;57.80
45491;DHT22;31237;45.586;13.782;2022-07-05T01:21:41;25.80;57.80
45491;DHT22;31237;45.586;13.782;2022-07-05T01:24:08;25.90;57.90
45491;DHT22;31237;45.586;13.782;2022-07-05T01:26:34;25.80;57.90
45491;DHT22;31237;45.586;13.782;2022-07-05T01:29:01;25.80;58.00
45491;DHT22;31237;45.586;13.782;2022-07-05T01:31:27;25.70;58.10
45491;DHT22;31237;45.586;13.782;2022-07-05T01:33:52;25.70;58.10
45491;DHT22;31237;45.586;13.782;2022-07-05T01:36:18;25.70;58.10
45491;DHT22;31237;45.586;13.782;2022-07-05T01:38:45;25.70;58.20
45491;DHT22;31237;45.586;13.782;2022-07-05T01:41:11;25.60;58.10
45491;DHT22;31237;45.586;13.782;2022-07-05T01:43:37;25.60;58.10
45491;DHT22;31237;45.586;13.782;2022-07-05T01:46:04;25.60;58.10
45491;DHT22;31237;45.586;13.782;2022-07-05T01:48:33;25.50;58.00
45491;DHT22;31237;45.586;13.782;2022-07-05T01:51:09;25.50;58.00
45491;DHT22;31237;45.586;13.782;2022-07-05T01:53:36;25.50;58.00
45491;DHT22;31237;45.586;13.782;2022-07-05T01:56:04;25.40;58.00
45491;DHT22;31237;45.586;13.782;2022-07-05T01:58:31;25.40;58.10
45491;DHT22;31237;45.586;13.782;2022-07-05T02:00:58;25.30;58.20
45491;DHT22;31237;45.586;13.782;2022-07-05T02:03:24;25.20;58.30
45491;DHT22;31237;45.586;13.782;2022-07-05T02:05:51;25.10;58.50
45491;DHT22;31237;45.586;13.782;2022-07-05T02:08:18;25.00;58.80
45491;DHT22;31237;45.586;13.782;2022-07-05T02:10:44;25.00;59.10
45491;DHT22;31237;45.586;13.782;2022-07-05T02:13:11;24.90;59.20
45491;DHT22;31237;45.586;13.782;2022-07-05T02:15:39;24.90;59.30
45491;DHT22;31237;45.586;13.782;2022-07-05T02:18:06;24.80;59.40
45491;DHT22;31237;45.586;13.782;2022-07-05T02:20:33;24.80;59.50
45491;DHT22;31237;45.586;13.782;2022-07-05T02:22:59;24.80;59.60
45491;DHT22;31237;45.586;13.782;2022-07-05T02:25:25;24.80;59.60
45491;DHT22;31237;45.586;13.782;2022-07-05T02:27:52;24.70;59.60
45491;DHT22;31237;45.586;13.782;2022-07-05T02:30:18;24.70;59.80
45491;DHT22;31237;45.586;13.782;2022-07-05T02:32:44;24.60;59.80
45491;DHT22;31237;45.586;13.782;2022-07-05T02:35:11;24.60;59.90
45491;DHT22;31237;45.586;13.782;2022-07-05T02:37:37;24.60;59.90
45491;DHT22;31237;45.586;13.782;2022-07-05T02:40:06;24.50;59.80
45491;DHT22;31237;45.586;13.782;2022-07-05T02:42:32;24.50;59.80
45491;DHT22;31237;45.586;13.782;2022-07-05T02:44:57;24.50;59.80
45491;DHT22;31237;45.586;13.782;2022-07-05T02:47:23;24.50;60.00
45491;DHT22;31237;45.586;13.782;2022-07-05T02:49:49;24.50;60.10
45491;DHT22;31237;45.586;13.782;2022-07-05T02:52:15;24.50;60.30
45491;DHT22;31237;45.586;13.782;2022-07-05T02:54:40;24.40;60.40
45491;DHT22;31237;45.586;13.782;2022-07-05T02:57:06;24.40;60.60
45491;DHT22;31237;45.586;13.782;2022-07-05T02:59:32;24.40;60.80
45491;DHT22;31237;45.586;13.782;2022-07-05T03:01:57;24.40;60.90
45491;DHT22;31237;45.586;13.782;2022-07-05T03:04:23;24.40;61.00
45491;DHT22;31237;45.586;13.782;2022-07-05T03:06:49;24.40;61.20
45491;DHT22;31237;45.586;13.782;2022-07-05T03:09:15;24.40;61.30
45491;DHT22;31237;45.586;13.782;2022-07-05T03:11:40;24.30;61.40
45491;DHT22;31237;45.586;13.782;2022-07-05T03:14:06;24.40;61.60
45491;DHT22;31237;45.586;13.782;2022-07-05T03:16:32;24.40;61.80
45491;DHT22;31237;45.586;13.782;2022-07-05T03:18:59;24.30;61.80
45491;DHT22;31237;45.586;13.782;2022-07-05T03:21:24;24.30;62.00
45491;DHT22;31237;45.586;13.782;2022-07-05T03:23:50;24.30;62.10
45491;DHT22;31237;45.586;13.782;2022-07-05T03:26:16;24.30;62.80
45491;DHT22;31237;45.586;13.782;2022-07-05T03:28:42;24.30;62.20
45491;DHT22;31237;45.586;13.782;2022-07-05T03:31:07;24.30;62.40
45491;DHT22;31237;45.586;13.782;2022-07-05T03:33:33;24.30;62.60
45491;DHT22;31237;45.586;13.782;2022-07-05T03:35:59;24.20;62.70
45491;DHT22;31237;45.586;13.782;2022-07-05T03:38:25;24.20;62.90
45491;DHT22;31237;45.586;13.782;2022-07-05T03:40:51;24.20;63.10
45491;DHT22;31237;45.586;13.782;2022-07-05T03:43:16;24.20;63.20
45491;DHT22;31237;45.586;13.782;2022-07-05T03:45:42;24.20;63.30
45491;DHT22;31237;45.586;13.782;2022-07-05T03:48:08;24.20;63.30
45491;DHT22;31237;45.586;13.782;2022-07-05T03:50:33;24.20;63.20
45491;DHT22;31237;45.586;13.782;2022-07-05T03:52:59;24.20;63.20
45491;DHT22;31237;45.586;13.782;2022-07-05T03:55:25;24.20;63.20
45491;DHT22;31237;45.586;13.782;2022-07-05T03:57:50;24.20;63.20
45491;DHT22;31237;45.586;13.782;2022-07-05T04:00:16;24.20;63.20
45491;DHT22;31237;45.586;13.782;2022-07-05T04:02:42;24.30;63.20
45491;DHT22;31237;45.586;13.782;2022-07-05T04:05:08;24.20;63.20
45491;DHT22;31237;45.586;13.782;2022-07-05T04:07:34;24.30;63.30
45491;DHT22;31237;45.586;13.782;2022-07-05T04:09:59;24.30;63.40
45491;DHT22;31237;45.586;13.782;2022-07-05T04:12:26;24.20;63.40
45491;DHT22;31237;45.586;13.782;2022-07-05T04:14:51;24.30;63.40
45491;DHT22;31237;45.586;13.782;2022-07-05T04:17:17;24.30;63.40
45491;DHT22;31237;45.586;13.782;2022-07-05T04:19:43;24.30;63.50
45491;DHT22;31237;45.586;13.782;2022-07-05T04:22:09;24.40;63.50
45491;DHT22;31237;45.586;13.782;2022-07-05T04:24:35;24.40;63.40
45491;DHT22;31237;45.586;13.782;2022-07-05T04:27:20;24.50;63.40
45491;DHT22;31237;45.586;13.782;2022-07-05T04:29:46;24.50;63.30
45491;DHT22;31237;45.586;13.782;2022-07-05T04:32:12;24.60;63.30
45491;DHT22;31237;45.586;13.782;2022-07-05T04:34:37;24.60;63.20
45491;DHT22;31237;45.586;13.782;2022-07-05T04:37:03;24.70;63.30
45491;DHT22;31237;45.586;13.782;2022-07-05T04:39:29;24.70;63.20
45491;DHT22;31237;45.586;13.782;2022-07-05T04:41:55;24.70;63.20
45491;DHT22;31237;45.586;13.782;2022-07-05T04:44:20;24.80;63.20
45491;DHT22;31237;45.586;13.782;2022-07-05T04:46:46;24.80;63.30
45491;DHT22;31237;45.586;13.782;2022-07-05T04:49:12;24.80;63.20
45491;DHT22;31237;45.586;13.782;2022-07-05T04:51:37;24.90;63.30
45491;DHT22;31237;45.586;13.782;2022-07-05T04:54:03;24.90;63.30
45491;DHT22;31237;45.586;13.782;2022-07-05T04:56:29;25.00;63.40
45491;DHT22;31237;45.586;13.782;2022-07-05T04:58:54;25.00;63.40
45491;DHT22;31237;45.586;13.782;2022-07-05T05:01:20;25.10;63.40
45491;DHT22;31237;45.586;13.782;2022-07-05T05:03:46;25.10;63.30
45491;DHT22;31237;45.586;13.782;2022-07-05T05:06:11;25.20;63.30
45491;DHT22;31237;45.586;13.782;2022-07-05T05:08:39;25.20;63.40
45491;DHT22;31237;45.586;13.782;2022-07-05T05:11:07;25.30;63.30
45491;DHT22;31237;45.586;13.782;2022-07-05T05:13:33;25.40;63.30
45491;DHT22;31237;45.586;13.782;2022-07-05T05:15:58;25.40;63.30
45491;DHT22;31237;45.586;13.782;2022-07-05T05:18:24;25.50;63.20
45491;DHT22;31237;45.586;13.782;2022-07-05T05:20:53;25.60;63.20
45491;DHT22;31237;45.586;13.782;2022-07-05T05:23:21;25.60;63.20
45491;DHT22;31237;45.586;13.782;2022-07-05T05:25:46;25.70;63.50
45491;DHT22;31237;45.586;13.782;2022-07-05T05:28:12;25.80;63.50
45491;DHT22;31237;45.586;13.782;2022-07-05T05:30:38;25.90;64.20
45491;DHT22;31237;45.586;13.782;2022-07-05T05:33:04;25.90;63.50
45491;DHT22;31237;45.586;13.782;2022-07-05T05:35:30;26.00;63.40
45491;DHT22;31237;45.586;13.782;2022-07-05T05:37:56;26.10;63.30
45491;DHT22;31237;45.586;13.782;2022-07-05T05:40:23;26.10;63.10
45491;DHT22;31237;45.586;13.782;2022-07-05T05:42:50;26.30;62.90
45491;DHT22;31237;45.586;13.782;2022-07-05T05:45:17;26.30;62.70
45491;DHT22;31237;45.586;13.782;2022-07-05T05:47:52;26.40;62.40
45491;DHT22;31237;45.586;13.782;2022-07-05T05:50:20;26.50;62.20
45491;DHT22;31237;45.586;13.782;2022-07-05T05:52:46;26.60;61.80
45491;DHT22;31237;45.586;13.782;2022-07-05T05:55:12;26.70;61.40
45491;DHT22;31237;45.586;13.782;2022-07-05T05:57:37;26.80;61.40
45491;DHT22;31237;45.586;13.782;2022-07-05T06:00:05;26.80;61.00
45491;DHT22;31237;45.586;13.782;2022-07-05T06:02:31;26.90;61.50
45491;DHT22;31237;45.586;13.782;2022-07-05T06:04:57;27.10;61.40
45491;DHT22;31237;45.586;13.782;2022-07-05T06:07:22;27.20;60.60
45491;DHT22;31237;45.586;13.782;2022-07-05T06:09:49;27.30;60.30
45491;DHT22;31237;45.586;13.782;2022-07-05T06:12:18;27.40;60.00
45491;DHT22;31237;45.586;13.782;2022-07-05T06:14:43;27.50;59.90
45491;DHT22;31237;45.586;13.782;2022-07-05T06:17:09;27.60;59.70
45491;DHT22;31237;45.586;13.782;2022-07-05T06:19:35;27.70;59.60
45491;DHT22;31237;45.586;13.782;2022-07-05T06:22:00;27.80;59.00
45491;DHT22;31237;45.586;13.782;2022-07-05T06:24:26;27.90;58.50
45491;DHT22;31237;45.586;13.782;2022-07-05T06:26:52;28.00;58.40
45491;DHT22;31237;45.586;13.782;2022-07-05T06:29:17;28.10;58.50
45491;DHT22;31237;45.586;13.782;2022-07-05T06:31:43;28.20;58.20
45491;DHT22;31237;45.586;13.782;2022-07-05T06:34:09;28.30;58.10
45491;DHT22;31237;45.586;13.782;2022-07-05T06:36:34;28.40;57.70
45491;DHT22;31237;45.586;13.782;2022-07-05T06:39:00;28.50;57.40
45491;DHT22;31237;45.586;13.782;2022-07-05T06:41:26;28.60;57.00
45491;DHT22;31237;45.586;13.782;2022-07-05T06:43:52;28.70;56.80
45491;DHT22;31237;45.586;13.782;2022-07-05T06:46:17;28.70;56.50
45491;DHT22;31237;45.586;13.782;2022-07-05T06:48:43;28.80;56.20
45491;DHT22;31237;45.586;13.782;2022-07-05T06:51:09;28.90;56.10
45491;DHT22;31237;45.586;13.782;2022-07-05T06:53:35;29.00;56.10
45491;DHT22;31237;45.586;13.782;2022-07-05T06:56:01;29.10;55.80
45491;DHT22;31237;45.586;13.782;2022-07-05T06:58:27;29.20;55.20
45491;DHT22;31237;45.586;13.782;2022-07-05T07:00:52;29.30;54.90
45491;DHT22;31237;45.586;13.782;2022-07-05T07:03:18;29.40;54.60
45491;DHT22;31237;45.586;13.782;2022-07-05T07:05:44;29.50;53.90
45491;DHT22;31237;45.586;13.782;2022-07-05T07:08:10;29.50;53.70
45491;DHT22;31237;45.586;13.782;2022-07-05T07:10:54;29.60;53.50
45491;DHT22;31237;45.586;13.782;2022-07-05T07:13:20;29.80;53.40
45491;DHT22;31237;45.586;13.782;2022-07-05T07:15:45;29.90;53.00
45491;DHT22;31237;45.586;13.782;2022-07-05T07:18:14;30.00;53.30
45491;DHT22;31237;45.586;13.782;2022-07-05T07:20:41;30.00;53.10
45491;DHT22;31237;45.586;13.782;2022-07-05T07:23:07;30.10;52.10
45491;DHT22;31237;45.586;13.782;2022-07-05T07:25:32;30.20;51.70
45491;DHT22;31237;45.586;13.782;2022-07-05T07:27:58;30.30;51.50
45491;DHT22;31237;45.586;13.782;2022-07-05T07:30:26;30.40;51.40
45491;DHT22;31237;45.586;13.782;2022-07-05T07:32:53;30.50;50.80
45491;DHT22;31237;45.586;13.782;2022-07-05T07:35:19;30.60;50.50
45491;DHT22;31237;45.586;13.782;2022-07-05T07:37:46;30.80;50.40
45491;DHT22;31237;45.586;13.782;2022-07-05T07:40:12;30.80;50.10
45491;DHT22;31237;45.586;13.782;2022-07-05T07:42:38;30.90;49.90
45491;DHT22;31237;45.586;13.782;2022-07-05T07:45:05;31.00;49.50
45491;DHT22;31237;45.586;13.782;2022-07-05T07:47:32;31.10;49.20
45491;DHT22;31237;45.586;13.782;2022-07-05T07:49:58;31.20;48.90
45491;DHT22;31237;45.586;13.782;2022-07-05T07:52:24;31.30;49.10
45491;DHT22;31237;45.586;13.782;2022-07-05T07:54:50;31.40;49.20
45491;DHT22;31237;45.586;13.782;2022-07-05T07:57:15;31.50;48.90
45491;DHT22;31237;45.586;13.782;2022-07-05T07:59:41;31.60;49.20
45491;DHT22;31237;45.586;13.782;2022-07-05T08:02:07;31.80;48.20
45491;DHT22;31237;45.586;13.782;2022-07-05T08:04:33;31.90;47.90
45491;DHT22;31237;45.586;13.782;2022-07-05T08:06:58;32.00;47.70
45491;DHT22;31237;45.586;13.782;2022-07-05T08:09:24;32.10;47.40
45491;DHT22;31237;45.586;13.782;2022-07-05T08:11:50;32.30;47.00
45491;DHT22;31237;45.586;13.782;2022-07-05T08:14:17;32.40;46.90
45491;DHT22;31237;45.586;13.782;2022-07-05T08:16:44;32.50;46.20
45491;DHT22;31237;45.586;13.782;2022-07-05T08:19:11;32.60;45.80
45491;DHT22;31237;45.586;13.782;2022-07-05T08:21:55;32.70;45.50
45491;DHT22;31237;45.586;13.782;2022-07-05T08:24:21;32.80;45.20
45491;DHT22;31237;45.586;13.782;2022-07-05T08:26:47;32.80;44.90
45491;DHT22;31237;45.586;13.782;2022-07-05T08:29:13;32.90;44.70
45491;DHT22;31237;45.586;13.782;2022-07-05T08:31:48;33.00;44.40
45491;DHT22;31237;45.586;13.782;2022-07-05T08:34:15;33.00;44.30
45491;DHT22;31237;45.586;13.782;2022-07-05T08:36:43;33.10;44.20
45491;DHT22;31237;45.586;13.782;2022-07-05T08:39:09;33.20;44.00
45491;DHT22;31237;45.586;13.782;2022-07-05T08:41:36;33.30;43.90
45491;DHT22;31237;45.586;13.782;2022-07-05T08:44:03;33.40;43.10
45491;DHT22;31237;45.586;13.782;2022-07-05T08:46:30;33.40;43.20
45491;DHT22;31237;45.586;13.782;2022-07-05T08:49:02;33.50;43.70
45491;DHT22;31237;45.586;13.782;2022-07-05T08:51:34;33.60;43.50
45491;DHT22;31237;45.586;13.782;2022-07-05T08:54:02;33.70;43.30
45491;DHT22;31237;45.586;13.782;2022-07-05T08:56:30;33.80;43.80
45491;DHT22;31237;45.586;13.782;2022-07-05T08:58:56;33.80;43.10
45491;DHT22;31237;45.586;13.782;2022-07-05T09:01:22;34.00;43.70
45491;DHT22;31237;45.586;13.782;2022-07-05T09:03:51;34.10;42.60
45491;DHT22;31237;45.586;13.782;2022-07-05T09:06:19;34.10;42.10
45491;DHT22;31237;45.586;13.782;2022-07-05T09:08:47;34.10;42.10
45491;DHT22;31237;45.586;13.782;2022-07-05T09:11:15;34.00;42.40
45491;DHT22;31237;45.586;13.782;2022-07-05T09:13:45;33.90;42.40
45491;DHT22;31237;45.586;13.782;2022-07-05T09:16:13;33.80;42.70
45491;DHT22;31237;45.586;13.782;2022-07-05T09:18:50;33.70;42.80
45491;DHT22;31237;45.586;13.782;2022-07-05T09:21:20;33.60;43.60
45491;DHT22;31237;45.586;13.782;2022-07-05T09:26:39;33.40;44.60
45491;DHT22;31237;45.586;13.782;2022-07-05T09:29:10;33.30;45.10
45491;DHT22;31237;45.586;13.782;2022-07-05T09:31:39;33.20;45.50
45491;DHT22;31237;45.586;13.782;2022-07-05T09:34:10;33.10;45.50
45491;DHT22;31237;45.586;13.782;2022-07-05T09:39:13;33.00;45.90
45491;DHT22;31237;45.586;13.782;2022-07-05T09:41:39;33.00;45.10
45491;DHT22;31237;45.586;13.782;2022-07-05T09:44:05;33.00;44.50
45491;DHT22;31237;45.586;13.782;2022-07-05T09:46:31;33.00;44.40
45491;DHT22;31237;45.586;13.782;2022-07-05T09:48:57;33.00;44.00
45491;DHT22;31237;45.586;13.782;2022-07-05T09:51:23;33.10;43.40
45491;DHT22;31237;45.586;13.782;2022-07-05T09:53:54;33.10;42.90
45491;DHT22;31237;45.586;13.782;2022-07-05T09:56:21;33.10;42.60
45491;DHT22;31237;45.586;13.782;2022-07-05T09:58:47;32.90;42.80
45491;DHT22;31237;45.586;13.782;2022-07-05T10:01:29;32.90;43.00
45491;DHT22;31237;45.586;13.782;2022-07-05T10:03:59;33.00;42.90
45491;DHT22;31237;45.586;13.782;2022-07-05T10:06:32;32.90;42.80
45491;DHT22;31237;45.586;13.782;2022-07-05T10:08:59;32.90;43.00
45491;DHT22;31237;45.586;13.782;2022-07-05T10:11:25;32.90;43.00
45491;DHT22;31237;45.586;13.782;2022-07-05T10:13:53;32.90;43.20
45491;DHT22;31237;45.586;13.782;2022-07-05T10:16:23;32.90;43.40
45491;DHT22;31237;45.586;13.782;2022-07-05T10:18:54;33.00;43.70
45491;DHT22;31237;45.586;13.782;2022-07-05T10:21:20;33.30;43.50
45491;DHT22;31237;45.586;13.782;2022-07-05T10:23:50;33.40;42.50
45491;DHT22;31237;45.586;13.782;2022-07-05T10:26:19;33.70;42.60
45491;DHT22;31237;45.586;13.782;2022-07-05T10:28:48;34.00;41.80
45491;DHT22;31237;45.586;13.782;2022-07-05T10:31:16;34.20;41.70
45491;DHT22;31237;45.586;13.782;2022-07-05T10:33:42;34.40;41.30
45491;DHT22;31237;45.586;13.782;2022-07-05T10:36:10;34.60;40.40
45491;DHT22;31237;45.586;13.782;2022-07-05T10:38:43;34.60;40.20
45491;DHT22;31237;45.586;13.782;2022-07-05T10:41:13;34.60;39.60
45491;DHT22;31237;45.586;13.782;2022-07-05T10:43:39;34.70;40.00
45491;DHT22;31237;45.586;13.782;2022-07-05T10:46:05;34.90;40.00
45491;DHT22;31237;45.586;13.782;2022-07-05T10:48:34;35.00;39.60
45491;DHT22;31237;45.586;13.782;2022-07-05T10:58:37;34.60;39.60
45491;DHT22;31237;45.586;13.782;2022-07-05T11:06:04;35.00;39.10
45491;DHT22;31237;45.586;13.782;2022-07-05T11:08:31;35.10;38.90
45491;DHT22;31237;45.586;13.782;2022-07-05T11:11:44;35.30;38.90
45491;DHT22;31237;45.586;13.782;2022-07-05T11:19:58;35.70;37.90
45491;DHT22;31237;45.586;13.782;2022-07-05T11:22:24;35.80;38.00
45491;DHT22;31237;45.586;13.782;2022-07-05T11:24:50;36.00;37.80
45491;DHT22;31237;45.586;13.782;2022-07-05T11:27:16;36.10;37.30
45491;DHT22;31237;45.586;13.782;2022-07-05T11:29:43;36.10;36.80
45491;DHT22;31237;45.586;13.782;2022-07-05T11:32:14;36.20;36.70
45491;DHT22;31237;45.586;13.782;2022-07-05T11:34:42;36.20;36.60
45491;DHT22;31237;45.586;13.782;2022-07-05T11:37:20;36.20;36.20
45491;DHT22;31237;45.586;13.782;2022-07-05T11:42:48;36.00;36.10
45491;DHT22;31237;45.586;13.782;2022-07-05T11:45:14;35.90;35.90
45491;DHT22;31237;45.586;13.782;2022-07-05T11:47:40;35.80;36.00
45491;DHT22;31237;45.586;13.782;2022-07-05T11:50:07;35.90;36.00
45491;DHT22;31237;45.586;13.782;2022-07-05T11:52:35;35.90;35.50
45491;DHT22;31237;45.586;13.782;2022-07-05T11:55:03;35.90;35.40
45491;DHT22;31237;45.586;13.782;2022-07-05T11:57:29;35.90;35.50
45491;DHT22;31237;45.586;13.782;2022-07-05T11:59:55;35.80;35.90
45491;DHT22;31237;45.586;13.782;2022-07-05T12:02:21;35.70;36.10
45491;DHT22;31237;45.586;13.782;2022-07-05T12:04:48;35.70;36.40
45491;DHT22;31237;45.586;13.782;2022-07-05T12:07:30;35.70;36.60
45491;DHT22;31237;45.586;13.782;2022-07-05T12:09:57;35.80;36.30
45491;DHT22;31237;45.586;13.782;2022-07-05T12:12:42;35.70;36.40
45491;DHT22;31237;45.586;13.782;2022-07-05T12:15:13;35.60;36.20
45491;DHT22;31237;45.586;13.782;2022-07-05T12:17:41;35.60;36.30
45491;DHT22;31237;45.586;13.782;2022-07-05T12:20:10;35.60;36.10
45491;DHT22;31237;45.586;13.782;2022-07-05T12:22:41;35.60;36.10
45491;DHT22;31237;45.586;13.782;2022-07-05T12:25:10;35.60;36.10
45491;DHT22;31237;45.586;13.782;2022-07-05T12:27:38;35.60;35.90
45491;DHT22;31237;45.586;13.782;2022-07-05T12:30:05;35.70;36.00
45491;DHT22;31237;45.586;13.782;2022-07-05T12:32:32;35.70;35.80
45491;DHT22;31237;45.586;13.782;2022-07-05T12:34:58;35.80;35.70
45491;DHT22;31237;45.586;13.782;2022-07-05T12:37:25;35.90;35.40
45491;DHT22;31237;45.586;13.782;2022-07-05T12:40:22;36.00;35.00
45491;DHT22;31237;45.586;13.782;2022-07-05T12:43:00;36.00;34.50
45491;DHT22;31237;45.586;13.782;2022-07-05T12:45:26;36.00;34.90
45491;DHT22;31237;45.586;13.782;2022-07-05T12:47:54;36.00;34.70
45491;DHT22;31237;45.586;13.782;2022-07-05T12:50:22;36.10;34.90
45491;DHT22;31237;45.586;13.782;2022-07-05T12:52:59;36.10;34.40
45491;DHT22;31237;45.586;13.782;2022-07-05T12:55:34;36.00;34.40
45491;DHT22;31237;45.586;13.782;2022-07-05T12:58:18;36.10;34.30
45491;DHT22;31237;45.586;13.782;2022-07-05T13:00:44;36.10;34.50
45491;DHT22;31237;45.586;13.782;2022-07-05T13:03:09;36.10;34.60
45491;DHT22;31237;45.586;13.782;2022-07-05T13:05:35;36.10;34.70
45491;DHT22;31237;45.586;13.782;2022-07-05T13:08:01;36.10;34.60
45491;DHT22;31237;45.586;13.782;2022-07-05T13:10:28;36.10;34.60
45491;DHT22;31237;45.586;13.782;2022-07-05T13:12:58;36.10;34.70
45491;DHT22;31237;45.586;13.782;2022-07-05T13:15:24;36.00;34.70
45491;DHT22;31237;45.586;13.782;2022-07-05T13:17:50;36.00;34.80
45491;DHT22;31237;45.586;13.782;2022-07-05T13:20:17;36.00;35.50
45491;DHT22;31237;45.586;13.782;2022-07-05T13:22:46;36.00;35.10
45491;DHT22;31237;45.586;13.782;2022-07-05T13:25:12;36.00;35.30
45491;DHT22;31237;45.586;13.782;2022-07-05T13:27:41;36.00;35.20
45491;DHT22;31237;45.586;13.782;2022-07-05T13:30:08;35.90;35.40
45491;DHT22;31237;45.586;13.782;2022-07-05T13:32:34;36.00;35.60
45491;DHT22;31237;45.586;13.782;2022-07-05T13:34:59;36.00;35.60
45491;DHT22;31237;45.586;13.782;2022-07-05T13:37:25;36.10;35.50
45491;DHT22;31237;45.586;13.782;2022-07-05T13:39:51;36.20;35.20
45491;DHT22;31237;45.586;13.782;2022-07-05T13:42:16;36.20;35.00
45491;DHT22;31237;45.586;13.782;2022-07-05T13:44:42;36.20;34.50
45491;DHT22;31237;45.586;13.782;2022-07-05T13:47:08;36.10;34.80
45491;DHT22;31237;45.586;13.782;2022-07-05T13:49:34;35.90;35.20
45491;DHT22;31237;45.586;13.782;2022-07-05T13:51:59;35.80;35.70
45491;DHT22;31237;45.586;13.782;2022-07-05T13:54:29;35.60;36.00
45491;DHT22;31237;45.586;13.782;2022-07-05T13:56:55;35.50;38.60
45491;DHT22;31237;45.586;13.782;2022-07-05T13:59:21;35.20;40.60
45491;DHT22;31237;45.586;13.782;2022-07-05T14:01:47;35.10;41.10
45491;DHT22;31237;45.586;13.782;2022-07-05T14:04:13;35.10;41.70
45491;DHT22;31237;45.586;13.782;2022-07-05T14:06:38;34.90;41.90
45491;DHT22;31237;45.586;13.782;2022-07-05T14:09:04;34.70;43.10
45491;DHT22;31237;45.586;13.782;2022-07-05T14:11:30;34.50;45.30
45491;DHT22;31237;45.586;13.782;2022-07-05T14:13:56;34.40;47.60
45491;DHT22;31237;45.586;13.782;2022-07-05T14:16:22;34.20;48.10
45491;DHT22;31237;45.586;13.782;2022-07-05T14:18:49;34.00;48.80
45491;DHT22;31237;45.586;13.782;2022-07-05T14:21:16;33.80;46.50
45491;DHT22;31237;45.586;13.782;2022-07-05T14:23:43;33.70;45.00
45491;DHT22;31237;45.586;13.782;2022-07-05T14:26:10;33.60;44.00
45491;DHT22;31237;45.586;13.782;2022-07-05T14:28:37;33.60;42.40
45491;DHT22;31237;45.586;13.782;2022-07-05T14:31:02;33.70;42.70
45491;DHT22;31237;45.586;13.782;2022-07-05T14:33:28;33.70;41.20
45491;DHT22;31237;45.586;13.782;2022-07-05T14:35:54;33.80;39.80
45491;DHT22;31237;45.586;13.782;2022-07-05T14:38:20;33.90;38.90
45491;DHT22;31237;45.586;13.782;2022-07-05T14:40:45;33.80;38.70
45491;DHT22;31237;45.586;13.782;2022-07-05T14:43:11;33.90;38.40
45491;DHT22;31237;45.586;13.782;2022-07-05T14:45:37;34.00;39.00
45491;DHT22;31237;45.586;13.782;2022-07-05T14:48:03;34.00;39.40
45491;DHT22;31237;45.586;13.782;2022-07-05T14:50:31;34.00;38.90
45491;DHT22;31237;45.586;13.782;2022-07-05T14:52:57;34.20;39.00
45491;DHT22;31237;45.586;13.782;2022-07-05T14:55:22;34.10;38.90
45491;DHT22;31237;45.586;13.782;2022-07-05T14:57:49;34.00;39.10
45491;DHT22;31237;45.586;13.782;2022-07-05T15:00:16;33.90;39.60
45491;DHT22;31237;45.586;13.782;2022-07-05T15:02:42;33.70;40.00
45491;DHT22;31237;45.586;13.782;2022-07-05T15:05:09;33.60;40.20
45491;DHT22;31237;45.586;13.782;2022-07-05T15:07:37;33.50;40.40
45491;DHT22;31237;45.586;13.782;2022-07-05T15:10:03;33.30;40.70
45491;DHT22;31237;45.586;13.782;2022-07-05T15:12:29;33.30;41.40
45491;DHT22;31237;45.586;13.782;2022-07-05T15:14:54;33.10;41.80
45491;DHT22;31237;45.586;13.782;2022-07-05T15:17:20;33.00;42.50
45491;DHT22;31237;45.586;13.782;2022-07-05T15:19:46;32.80;42.90
45491;DHT22;31237;45.586;13.782;2022-07-05T15:22:11;32.70;43.30
45491;DHT22;31237;45.586;13.782;2022-07-05T15:24:37;32.60;43.70
45491;DHT22;31237;45.586;13.782;2022-07-05T15:27:03;32.50;44.00
45491;DHT22;31237;45.586;13.782;2022-07-05T15:29:29;32.30;44.20
45491;DHT22;31237;45.586;13.782;2022-07-05T15:31:56;32.30;44.50
45491;DHT22;31237;45.586;13.782;2022-07-05T15:34:23;32.20;44.60
45491;DHT22;31237;45.586;13.782;2022-07-05T15:36:51;32.10;44.40
45491;DHT22;31237;45.586;13.782;2022-07-05T15:39:17;32.00;44.20
45491;DHT22;31237;45.586;13.782;2022-07-05T15:41:42;31.80;43.90